WEATHER/FLIGHT PLANNING

Hattiesburg Radar

 

 

 

 

Weather Links

Flight Planning Links

 

METAR

2016/07/01 19:53 KHBG 011953Z AUTO 29004KT 10SM CLR 34/18 A3000 RMK AO2 SLP154 T03390178

TAF

2016/07/01 18:21 TAF KHBG 011720Z 0118/0218 36005KT P6SM SKC FM021100 00000KT 4SM BR SKC FM021400 35002KT P6SM SKC